createdAt,value
2023-07-25T00:01:08.911Z,5.60
2023-07-25T00:03:37.095Z,4.07
2023-07-25T00:06:04.957Z,4.22
2023-07-25T00:08:33.482Z,4.65
2023-07-25T00:11:01.541Z,5.22
2023-07-25T00:13:29.421Z,5.43
2023-07-25T00:15:57.068Z,3.67
2023-07-25T00:18:24.664Z,4.38
2023-07-25T00:20:52.259Z,4.32
2023-07-25T00:23:20.355Z,5.25
2023-07-25T00:25:48.048Z,6.22
2023-07-25T00:28:15.735Z,4.90
2023-07-25T00:30:43.360Z,5.03
2023-07-25T00:33:10.972Z,4.13
2023-07-25T00:35:38.797Z,4.57
2023-07-25T00:38:06.610Z,4.60
2023-07-25T00:40:38.940Z,4.93
2023-07-25T00:43:06.685Z,4.65
2023-07-25T00:45:34.873Z,4.40
2023-07-25T00:48:04.154Z,5.30
2023-07-25T00:50:32.226Z,7.50
2023-07-25T00:53:01.292Z,5.67
2023-07-25T00:55:29.865Z,5.00
2023-07-25T00:57:57.582Z,5.68
2023-07-25T01:00:28.877Z,5.85
2023-07-25T01:02:56.752Z,6.20
2023-07-25T01:05:26.789Z,6.90
2023-07-25T01:07:54.619Z,7.32
2023-07-25T01:10:22.256Z,5.40
2023-07-25T01:12:49.921Z,5.47
2023-07-25T01:15:17.661Z,6.38
2023-07-25T01:17:45.482Z,5.83
2023-07-25T01:20:13.504Z,7.57
2023-07-25T01:22:44.833Z,9.07
2023-07-25T01:25:12.591Z,6.70
2023-07-25T01:27:40.181Z,8.60
2023-07-25T01:30:08.518Z,8.50
2023-07-25T01:32:36.287Z,8.40
2023-07-25T01:35:04.442Z,7.00
2023-07-25T01:37:32.063Z,6.68
2023-07-25T01:39:59.984Z,7.90
2023-07-25T01:42:27.827Z,9.13
2023-07-25T01:44:55.481Z,7.90
2023-07-25T01:47:27.282Z,7.18
2023-07-25T01:49:55.600Z,8.82
2023-07-25T01:52:23.263Z,8.32
2023-07-25T01:54:53.147Z,9.07
2023-07-25T01:57:20.907Z,7.32
2023-07-25T01:59:48.926Z,9.48
2023-07-25T02:02:16.574Z,7.20
2023-07-25T02:04:44.244Z,9.52
2023-07-25T02:07:11.829Z,7.97
2023-07-25T02:09:39.439Z,8.60
2023-07-25T02:12:08.716Z,7.63
2023-07-25T02:14:36.329Z,8.77
2023-07-25T02:17:06.695Z,8.45
2023-07-25T02:19:34.432Z,8.17
2023-07-25T02:22:02.030Z,7.25
2023-07-25T02:24:29.923Z,8.25
2023-07-25T02:26:57.655Z,7.60
2023-07-25T02:29:26.024Z,7.43
2023-07-25T02:31:53.571Z,8.77
2023-07-25T02:34:21.614Z,7.55
2023-07-25T02:36:49.247Z,8.55
2023-07-25T02:39:16.993Z,7.07
2023-07-25T02:41:44.764Z,8.35
2023-07-25T02:44:12.367Z,7.03
2023-07-25T02:46:39.995Z,9.57
2023-07-25T02:49:07.805Z,8.30
2023-07-25T02:51:37.361Z,6.72
2023-07-25T02:54:04.975Z,10.90
2023-07-25T02:56:32.579Z,7.30
2023-07-25T02:59:00.210Z,8.38
2023-07-25T03:01:27.809Z,8.30
2023-07-25T03:03:55.464Z,7.95
2023-07-25T03:06:23.150Z,7.50
2023-07-25T03:08:50.793Z,6.77
2023-07-25T03:11:18.412Z,7.68
2023-07-25T03:13:46.210Z,7.00
2023-07-25T03:16:13.956Z,7.55
2023-07-25T03:18:41.608Z,7.97
2023-07-25T03:21:09.166Z,7.00
2023-07-25T03:23:36.790Z,8.50
2023-07-25T03:26:04.898Z,6.85
2023-07-25T03:28:32.521Z,8.70
2023-07-25T03:31:00.293Z,7.80
2023-07-25T03:33:28.988Z,6.97
2023-07-25T03:35:56.834Z,7.40
2023-07-25T03:38:24.460Z,11.82
2023-07-25T03:40:52.444Z,6.32
2023-07-25T03:43:21.409Z,6.03
2023-07-25T03:45:49.133Z,7.23
2023-07-25T03:48:16.797Z,7.47
2023-07-25T03:50:44.436Z,6.25
2023-07-25T03:53:12.133Z,7.30
2023-07-25T03:55:39.773Z,7.28
2023-07-25T03:58:07.527Z,6.67
2023-07-25T04:00:35.223Z,6.65
2023-07-25T04:03:14.198Z,6.07
2023-07-25T04:05:43.489Z,6.55
2023-07-25T04:08:11.206Z,7.22
2023-07-25T04:10:39.725Z,7.90
2023-07-25T04:13:07.310Z,7.30
2023-07-25T04:15:35.069Z,6.90
2023-07-25T04:18:03.077Z,6.40
2023-07-25T04:20:30.792Z,6.22
2023-07-25T04:22:59.888Z,6.07
2023-07-25T04:25:28.010Z,7.13
2023-07-25T04:27:55.564Z,7.30
2023-07-25T04:30:23.223Z,7.60
2023-07-25T04:32:51.028Z,6.35
2023-07-25T04:35:18.778Z,7.87
2023-07-25T04:37:46.451Z,5.78
2023-07-25T04:40:15.010Z,6.53
2023-07-25T04:42:42.740Z,7.38
2023-07-25T04:45:11.774Z,7.88
2023-07-25T04:47:39.579Z,7.33
2023-07-25T04:50:07.501Z,6.75
2023-07-25T04:52:36.398Z,6.65
2023-07-25T04:55:04.117Z,6.55
2023-07-25T04:57:31.763Z,6.25
2023-07-25T04:59:59.482Z,6.73
2023-07-25T05:02:27.164Z,5.97
2023-07-25T05:04:54.825Z,8.90
2023-07-25T05:07:22.461Z,6.35
2023-07-25T05:09:50.171Z,5.85
2023-07-25T05:12:17.772Z,5.67
2023-07-25T05:14:45.375Z,6.25
2023-07-25T05:17:12.954Z,5.05
2023-07-25T05:19:42.881Z,6.30
2023-07-25T05:22:10.632Z,5.28
2023-07-25T05:24:38.294Z,6.17
2023-07-25T05:27:06.331Z,5.85
2023-07-25T05:29:34.857Z,5.93
2023-07-25T05:32:02.489Z,6.55
2023-07-25T05:34:30.177Z,7.10
2023-07-25T05:36:57.783Z,5.73
2023-07-25T05:39:25.567Z,6.70
2023-07-25T05:41:53.159Z,5.35
2023-07-25T05:44:20.823Z,5.50
2023-07-25T05:46:48.536Z,5.75
2023-07-25T05:49:16.432Z,6.20
2023-07-25T05:51:44.610Z,7.05
2023-07-25T05:54:16.202Z,6.47
2023-07-25T05:56:43.846Z,5.45
2023-07-25T05:59:12.862Z,5.68
2023-07-25T06:01:41.320Z,5.27
2023-07-25T06:04:08.959Z,7.45
2023-07-25T06:06:36.542Z,5.03
2023-07-25T06:09:04.629Z,5.35
2023-07-25T06:11:32.571Z,7.15
2023-07-25T06:14:00.479Z,5.40
2023-07-25T06:16:28.193Z,4.93
2023-07-25T06:18:56.068Z,6.30
2023-07-25T06:21:23.964Z,5.65
2023-07-25T06:23:51.588Z,6.38
2023-07-25T06:26:19.257Z,6.27
2023-07-25T06:28:46.864Z,4.90
2023-07-25T06:31:14.592Z,5.45
2023-07-25T06:33:42.246Z,4.43
2023-07-25T06:36:09.901Z,5.72
2023-07-25T06:38:37.473Z,6.63
2023-07-25T06:41:05.157Z,6.75
2023-07-25T06:43:32.713Z,6.13
2023-07-25T06:46:03.110Z,7.13
2023-07-25T06:48:30.793Z,7.25
2023-07-25T06:50:58.602Z,5.93
2023-07-25T06:53:26.290Z,4.97
2023-07-25T06:55:54.111Z,5.63
2023-07-25T06:58:22.435Z,5.78
2023-07-25T07:00:50.030Z,5.65
2023-07-25T07:03:17.729Z,6.47
2023-07-25T07:05:55.226Z,6.15
2023-07-25T07:08:23.934Z,6.25
2023-07-25T07:10:55.728Z,5.07
2023-07-25T07:13:24.241Z,5.63
2023-07-25T07:15:52.456Z,4.10
2023-07-25T07:18:20.262Z,5.00
2023-07-25T07:20:49.712Z,5.05
2023-07-25T07:23:18.000Z,6.57
2023-07-25T07:25:46.244Z,7.22
2023-07-25T07:28:14.811Z,6.70
2023-07-25T07:30:42.673Z,5.65
2023-07-25T07:33:10.340Z,6.07
2023-07-25T07:35:38.010Z,5.40
2023-07-25T07:38:05.640Z,7.80
2023-07-25T07:40:34.246Z,4.80
2023-07-25T07:43:02.088Z,6.10
2023-07-25T07:45:31.033Z,8.85
2023-07-25T07:47:58.647Z,6.57
2023-07-25T07:50:29.622Z,5.22
2023-07-25T07:52:57.268Z,5.10
2023-07-25T07:55:25.020Z,5.80
2023-07-25T07:57:53.188Z,7.60
2023-07-25T08:00:20.936Z,6.65
2023-07-25T08:02:48.894Z,6.68
2023-07-25T08:05:16.583Z,5.63
2023-07-25T08:07:44.258Z,6.13
2023-07-25T08:10:11.922Z,4.90
2023-07-25T08:12:39.874Z,6.72
2023-07-25T08:15:08.704Z,5.95
2023-07-25T08:17:36.798Z,6.07
2023-07-25T08:20:05.029Z,6.68
2023-07-25T08:22:32.684Z,6.95
2023-07-25T08:25:00.561Z,6.22
2023-07-25T08:27:28.463Z,8.23
2023-07-25T08:29:56.696Z,5.70
2023-07-25T08:32:26.853Z,7.00
2023-07-25T08:34:54.928Z,7.72
2023-07-25T08:37:24.592Z,7.80
2023-07-25T08:39:52.313Z,7.90
2023-07-25T08:42:23.287Z,8.90
2023-07-25T08:44:52.927Z,7.82
2023-07-25T08:47:28.632Z,6.90
2023-07-25T08:49:58.415Z,6.68
2023-07-25T08:52:31.797Z,7.70
2023-07-25T08:54:59.406Z,6.47
2023-07-25T08:57:28.944Z,6.85
2023-07-25T08:59:57.423Z,8.88
2023-07-25T09:02:26.790Z,6.72
2023-07-25T09:04:55.337Z,8.35
2023-07-25T09:07:22.959Z,9.67
2023-07-25T09:09:50.980Z,6.95
2023-07-25T09:12:19.216Z,8.05
2023-07-25T09:14:46.894Z,9.15
2023-07-25T09:17:14.550Z,8.55
2023-07-25T09:19:42.816Z,7.80
2023-07-25T09:22:30.297Z,8.10
2023-07-25T09:24:59.578Z,7.57
2023-07-25T09:27:27.929Z,8.20
2023-07-25T09:29:55.716Z,7.80
2023-07-25T09:32:26.345Z,9.57
2023-07-25T09:35:00.076Z,7.03
2023-07-25T09:37:29.598Z,7.47
2023-07-25T09:39:57.408Z,6.20
2023-07-25T09:42:26.576Z,7.90
2023-07-25T09:44:55.268Z,8.63
2023-07-25T09:47:24.732Z,6.63
2023-07-25T09:49:56.100Z,7.18
2023-07-25T09:52:24.666Z,7.28
2023-07-25T09:54:52.567Z,7.10
2023-07-25T09:57:20.459Z,6.30
2023-07-25T09:59:50.648Z,8.93
2023-07-25T10:02:19.213Z,7.05
2023-07-25T10:04:47.821Z,7.82
2023-07-25T10:07:15.938Z,7.95
2023-07-25T10:09:46.521Z,7.03
2023-07-25T10:12:14.295Z,7.03
2023-07-25T10:14:41.927Z,7.00
2023-07-25T10:17:10.034Z,6.70
2023-07-25T10:19:56.919Z,7.28
2023-07-25T10:22:37.709Z,6.47
2023-07-25T10:25:11.412Z,6.85
2023-07-25T10:27:39.117Z,6.22
2023-07-25T10:30:28.353Z,6.85
2023-07-25T10:33:03.702Z,6.15
2023-07-25T10:35:54.505Z,5.63
2023-07-25T10:38:34.333Z,5.13
2023-07-25T10:41:12.631Z,5.43
2023-07-25T10:43:46.411Z,6.13
2023-07-25T10:46:18.950Z,5.53
2023-07-25T10:48:48.739Z,5.37
2023-07-25T10:51:19.016Z,5.68
2023-07-25T10:54:12.070Z,7.05
2023-07-25T10:56:41.273Z,7.70
2023-07-25T10:59:15.295Z,8.20
2023-07-25T11:01:46.088Z,5.70
2023-07-25T11:04:31.652Z,6.70
2023-07-25T11:07:08.665Z,5.63
2023-07-25T11:09:41.068Z,5.60
2023-07-25T11:12:11.172Z,6.63
2023-07-25T11:14:43.722Z,5.97
2023-07-25T11:17:14.897Z,4.40
2023-07-25T11:19:42.585Z,4.25
2023-07-25T11:22:11.872Z,5.03
2023-07-25T11:24:48.421Z,4.05
2023-07-25T11:27:16.196Z,3.80
2023-07-25T11:29:43.838Z,3.88
2023-07-25T11:32:11.701Z,4.75
2023-07-25T11:34:39.750Z,5.18
2023-07-25T11:37:14.186Z,5.03
2023-07-25T11:39:42.115Z,3.30
2023-07-25T11:42:09.984Z,3.83
2023-07-25T11:44:37.889Z,3.30
2023-07-25T11:47:06.112Z,3.85
2023-07-25T11:52:06.107Z,6.03
2023-07-25T11:54:35.042Z,3.83
2023-07-25T11:57:03.078Z,2.90
2023-07-25T11:59:31.074Z,3.50
2023-07-25T12:02:06.591Z,4.57
2023-07-25T12:04:43.838Z,3.83
2023-07-25T12:07:12.609Z,4.15
2023-07-25T12:09:41.164Z,3.45
2023-07-25T12:12:13.873Z,3.22
2023-07-25T12:14:42.460Z,3.63
2023-07-25T12:17:10.079Z,3.30
2023-07-25T12:19:37.982Z,4.20
2023-07-25T12:22:06.756Z,4.20
2023-07-25T12:24:42.031Z,4.22
2023-07-25T12:27:20.471Z,3.33
2023-07-25T12:29:48.174Z,2.90
2023-07-25T12:32:15.734Z,3.60
2023-07-25T12:34:43.447Z,3.83
2023-07-25T12:37:11.079Z,3.42
2023-07-25T12:39:40.475Z,2.78
2023-07-25T12:42:08.298Z,2.37
2023-07-25T12:44:36.733Z,3.40
2023-07-25T12:47:05.731Z,2.53
2023-07-25T12:49:34.457Z,2.22
2023-07-25T12:52:02.271Z,3.22
2023-07-25T12:54:29.901Z,3.50
2023-07-25T12:56:58.038Z,5.00
2023-07-25T12:59:25.748Z,5.47
2023-07-25T13:01:53.569Z,3.53
2023-07-25T13:04:21.438Z,5.55
2023-07-25T13:06:49.396Z,3.73
2023-07-25T13:09:17.016Z,3.72
2023-07-25T13:11:45.760Z,4.20
2023-07-25T13:14:13.422Z,3.65
2023-07-25T13:16:41.166Z,3.55
2023-07-25T13:19:12.826Z,3.37
2023-07-25T13:21:40.550Z,3.25
2023-07-25T13:24:08.261Z,8.32
2023-07-25T13:26:35.943Z,3.92
2023-07-25T13:29:04.920Z,4.78
2023-07-25T13:31:32.971Z,3.73
2023-07-25T13:34:00.796Z,5.47
2023-07-25T13:36:28.441Z,4.07
2023-07-25T13:38:56.071Z,4.43
2023-07-25T13:41:23.895Z,3.75
2023-07-25T13:43:51.551Z,4.63
2023-07-25T13:46:19.263Z,3.67
2023-07-25T13:48:48.746Z,4.28
2023-07-25T13:51:16.435Z,4.80
2023-07-25T13:53:44.024Z,3.25
2023-07-25T13:56:12.230Z,3.63
2023-07-25T13:58:39.856Z,4.25
2023-07-25T14:01:07.530Z,4.30
2023-07-25T14:03:35.228Z,3.15
2023-07-25T14:06:02.946Z,4.80
2023-07-25T14:08:30.824Z,4.20
2023-07-25T14:10:58.517Z,4.50
2023-07-25T14:13:27.265Z,4.28
2023-07-25T14:15:56.013Z,4.00
2023-07-25T14:18:24.493Z,4.18
2023-07-25T14:20:53.845Z,4.30
2023-07-25T14:23:23.229Z,3.70
2023-07-25T14:25:50.837Z,3.22
2023-07-25T14:28:18.473Z,4.22
2023-07-25T14:30:46.488Z,3.97
2023-07-25T14:33:16.058Z,3.17
2023-07-25T14:35:43.952Z,4.03
2023-07-25T14:38:14.013Z,3.05
2023-07-25T14:40:42.400Z,3.35
2023-07-25T14:43:09.972Z,3.42
2023-07-25T14:45:37.608Z,4.90
2023-07-25T14:48:05.905Z,5.15
2023-07-25T14:50:33.887Z,4.38
2023-07-25T14:53:01.761Z,3.33
2023-07-25T14:55:29.581Z,5.32
2023-07-25T14:57:57.193Z,4.13
2023-07-25T15:00:24.893Z,4.05
2023-07-25T15:02:52.644Z,5.50
2023-07-25T15:05:20.366Z,4.45
2023-07-25T15:07:48.023Z,4.03
2023-07-25T15:10:15.993Z,4.77
2023-07-25T15:12:43.712Z,3.10
2023-07-25T15:15:11.726Z,2.90
2023-07-25T15:17:39.458Z,4.35
2023-07-25T15:20:11.687Z,5.10
2023-07-25T15:22:39.734Z,4.53
2023-07-25T15:25:07.844Z,4.45
2023-07-25T15:27:35.636Z,3.50
2023-07-25T15:30:04.245Z,4.93
2023-07-25T15:32:33.002Z,2.88
2023-07-25T15:35:01.409Z,3.53
2023-07-25T15:37:29.267Z,3.72
2023-07-25T15:39:56.843Z,3.47
2023-07-25T15:42:24.538Z,4.00
2023-07-25T15:44:52.082Z,3.90
2023-07-25T15:47:19.681Z,3.13
2023-07-25T15:49:47.625Z,5.63
2023-07-25T15:52:15.324Z,3.10
2023-07-25T15:54:42.949Z,3.40
2023-07-25T15:57:10.622Z,3.40
2023-07-25T15:59:38.246Z,3.20
2023-07-25T16:02:05.965Z,6.13
2023-07-25T16:04:33.600Z,11.02
2023-07-25T16:07:01.315Z,3.75
2023-07-25T16:09:33.441Z,2.90
2023-07-25T16:12:02.358Z,4.60
2023-07-25T16:14:30.047Z,4.32
2023-07-25T16:16:57.789Z,4.25
2023-07-25T16:19:27.869Z,4.15
2023-07-25T16:21:55.525Z,5.43
2023-07-25T16:24:23.200Z,3.77
2023-07-25T16:26:51.186Z,3.30
2023-07-25T16:29:18.934Z,4.85
2023-07-25T16:31:49.104Z,6.13
2023-07-25T16:34:18.685Z,4.07
2023-07-25T16:36:46.388Z,6.97
2023-07-25T16:39:14.050Z,4.72
2023-07-25T16:41:41.696Z,5.45
2023-07-25T16:44:09.848Z,6.97
2023-07-25T16:46:37.639Z,3.97
2023-07-25T16:49:05.365Z,4.03
2023-07-25T16:51:33.180Z,4.25
2023-07-25T16:54:01.106Z,3.55
2023-07-25T16:56:28.713Z,4.38
2023-07-25T16:58:56.504Z,4.40
2023-07-25T17:01:24.460Z,3.33
2023-07-25T17:03:52.332Z,3.22
2023-07-25T17:06:19.998Z,4.45
2023-07-25T17:08:47.682Z,3.78
2023-07-25T17:11:16.649Z,5.45
2023-07-25T17:13:44.362Z,3.63
2023-07-25T17:16:12.087Z,3.80
2023-07-25T17:18:39.958Z,3.65
2023-07-25T17:21:07.649Z,4.28
2023-07-25T17:23:35.341Z,3.42
2023-07-25T17:26:03.323Z,6.20
2023-07-25T17:28:31.042Z,3.92
2023-07-25T17:30:58.922Z,3.78
2023-07-25T17:33:26.882Z,5.47
2023-07-25T17:35:54.599Z,4.00
2023-07-25T17:38:22.437Z,4.53
2023-07-25T17:40:50.311Z,7.05
2023-07-25T17:43:17.972Z,5.35
2023-07-25T17:45:45.718Z,4.95
2023-07-25T18:28:54.224Z,3.63
2023-07-25T18:31:22.031Z,4.93
2023-07-25T18:33:49.710Z,5.10
2023-07-25T18:36:17.377Z,3.65
2023-07-25T18:38:45.103Z,5.05
2023-07-25T18:41:12.958Z,5.05
2023-07-25T18:43:40.580Z,3.88
2023-07-25T18:46:08.301Z,4.23
2023-07-25T18:48:35.987Z,3.88
2023-07-25T18:51:03.762Z,2.92
2023-07-25T18:53:31.493Z,2.85
2023-07-25T18:55:59.108Z,5.70
2023-07-25T18:58:28.413Z,4.03
2023-07-25T19:00:56.118Z,4.47
2023-07-25T19:03:24.000Z,4.07
2023-07-25T19:05:53.567Z,4.30
2023-07-25T19:08:21.308Z,3.45
2023-07-25T19:10:48.943Z,3.80
2023-07-25T19:13:16.640Z,3.88
2023-07-25T19:15:44.800Z,4.45
2023-07-25T19:18:12.498Z,5.05
2023-07-25T19:20:40.501Z,3.25
2023-07-25T19:23:24.801Z,5.63
2023-07-25T19:26:00.563Z,6.10
2023-07-25T19:28:29.603Z,3.55
2023-07-25T19:30:58.778Z,3.78
2023-07-25T19:33:29.052Z,5.78
2023-07-25T19:35:59.245Z,3.33
2023-07-25T19:38:28.294Z,4.43
2023-07-25T19:40:56.459Z,4.22
2023-07-25T19:43:24.552Z,3.67
2023-07-25T19:45:56.898Z,6.25
2023-07-25T19:48:24.576Z,2.97
2023-07-25T19:50:52.249Z,3.42
2023-07-25T19:53:19.923Z,3.40
2023-07-25T19:55:56.539Z,4.15
2023-07-25T19:58:24.283Z,3.83
2023-07-25T20:00:51.875Z,3.17
2023-07-25T20:03:19.770Z,3.92
2023-07-25T20:05:47.595Z,3.65
2023-07-25T20:08:15.707Z,4.07
2023-07-25T20:10:44.313Z,3.88
2023-07-25T20:13:12.333Z,4.33
2023-07-25T20:15:40.016Z,4.60
2023-07-25T20:18:07.793Z,3.50
2023-07-25T20:20:35.540Z,3.65
2023-07-25T20:23:03.289Z,3.67
2023-07-25T20:25:30.965Z,4.23
2023-07-25T20:27:58.695Z,2.90
2023-07-25T20:30:26.702Z,4.10
2023-07-25T20:32:54.443Z,3.88
2023-07-25T20:35:22.186Z,5.40
2023-07-25T20:37:49.865Z,3.77
2023-07-25T20:40:18.330Z,5.57
2023-07-25T20:42:45.962Z,4.13
2023-07-25T20:45:15.653Z,3.60
2023-07-25T20:47:43.732Z,4.00
2023-07-25T20:50:11.408Z,4.37
2023-07-25T20:52:39.046Z,4.07
2023-07-25T20:55:08.073Z,4.32
2023-07-25T20:57:35.812Z,6.13
2023-07-25T21:00:03.793Z,5.65
2023-07-25T21:02:31.713Z,6.10
2023-07-25T21:04:59.458Z,4.82
2023-07-25T21:07:27.580Z,5.03
2023-07-25T21:09:55.412Z,3.45
2023-07-25T21:12:23.132Z,4.82
2023-07-25T21:14:51.032Z,4.33
2023-07-25T21:17:18.747Z,4.25
2023-07-25T21:19:46.405Z,4.65
2023-07-25T21:22:14.263Z,5.03
2023-07-25T21:24:42.056Z,6.13
2023-07-25T21:27:09.785Z,5.33
2023-07-25T21:29:37.439Z,4.13
2023-07-25T21:32:05.606Z,3.92
2023-07-25T21:34:33.324Z,4.88
2023-07-25T21:37:00.967Z,3.92
2023-07-25T21:39:28.537Z,3.93
2023-07-25T21:41:56.220Z,5.13
2023-07-25T21:44:23.853Z,5.05
2023-07-25T21:46:51.562Z,5.68
2023-07-25T21:49:19.355Z,5.55
2023-07-25T21:51:47.002Z,4.97
2023-07-25T21:54:14.687Z,7.95
2023-07-25T21:56:42.778Z,4.80
2023-07-25T21:59:10.477Z,5.47
2023-07-25T22:01:39.269Z,6.25
2023-07-25T22:04:09.098Z,6.10
2023-07-25T22:06:36.760Z,6.65
2023-07-25T22:09:05.172Z,4.88
2023-07-25T22:11:32.870Z,5.78
2023-07-25T22:14:00.611Z,7.30
2023-07-25T22:16:28.457Z,5.63
2023-07-25T22:18:56.158Z,6.53
2023-07-25T22:21:23.824Z,6.78
2023-07-25T22:23:51.452Z,6.10
2023-07-25T22:26:19.158Z,7.15
2023-07-25T22:28:46.833Z,5.07
2023-07-25T22:31:14.958Z,6.10
2023-07-25T22:33:42.603Z,4.75
2023-07-25T22:36:10.267Z,5.63
2023-07-25T22:38:38.232Z,6.57
2023-07-25T22:41:05.992Z,4.23
2023-07-25T22:43:33.654Z,8.00
2023-07-25T22:46:01.363Z,5.10
2023-07-25T22:48:29.135Z,6.90
2023-07-25T22:50:56.805Z,7.75
2023-07-25T22:53:24.521Z,6.77
2023-07-25T22:55:52.249Z,6.15
2023-07-25T22:58:19.858Z,4.93
2023-07-25T23:00:47.843Z,5.65
2023-07-25T23:03:16.001Z,6.10
2023-07-25T23:05:43.782Z,4.80
2023-07-25T23:08:11.573Z,5.20
2023-07-25T23:10:39.279Z,5.95
2023-07-25T23:13:07.049Z,4.53
2023-07-25T23:15:34.740Z,4.40
2023-07-25T23:18:02.591Z,6.03
2023-07-25T23:20:30.931Z,6.55
2023-07-25T23:22:58.885Z,4.85
2023-07-25T23:25:26.532Z,5.95
2023-07-25T23:27:54.112Z,7.70
2023-07-25T23:30:21.739Z,6.33
2023-07-25T23:32:49.415Z,4.85
2023-07-25T23:35:17.172Z,6.82
2023-07-25T23:37:45.171Z,8.38
2023-07-25T23:40:13.334Z,5.05
2023-07-25T23:42:40.973Z,8.00
2023-07-25T23:45:09.008Z,6.15
2023-07-25T23:47:36.757Z,5.82
2023-07-25T23:50:06.445Z,6.18
2023-07-25T23:52:35.314Z,5.13
2023-07-25T23:55:04.080Z,6.37
2023-07-25T23:57:31.799Z,4.53
2023-07-25T23:59:59.391Z,6.13
